createdAt,value
2022-11-30T00:00:36.273Z,19.29
2022-11-30T00:03:09.462Z,18.81
2022-11-30T00:05:40.372Z,18.34
2022-11-30T00:08:11.495Z,18.15
2022-11-30T00:10:43.155Z,17.47
2022-11-30T00:13:13.923Z,17.34
2022-11-30T00:15:44.972Z,17.11
2022-11-30T00:18:18.296Z,17.04
2022-11-30T00:20:49.136Z,16.98
2022-11-30T00:23:20.103Z,16.72
2022-11-30T00:25:51.388Z,16.36
2022-11-30T00:28:22.210Z,16.37
2022-11-30T00:31:09.585Z,16.52
2022-11-30T00:33:41.467Z,16.59
2022-11-30T00:36:17.651Z,16.44
2022-11-30T00:38:48.746Z,16.32
2022-11-30T00:41:20.503Z,16.29
2022-11-30T00:43:50.844Z,16.22
2022-11-30T00:46:22.078Z,16.23
2022-11-30T00:48:53.239Z,16.35
2022-11-30T00:51:24.216Z,16.47
2022-11-30T00:53:54.908Z,16.47
2022-11-30T00:56:26.093Z,16.51
2022-11-30T00:58:57.008Z,16.56
2022-11-30T01:01:28.133Z,16.59
2022-11-30T01:03:59.752Z,16.76
2022-11-30T01:06:30.713Z,16.82
2022-11-30T01:09:02.027Z,16.96
2022-11-30T01:11:33.690Z,16.73
2022-11-30T01:14:04.790Z,16.81
2022-11-30T01:16:36.515Z,16.94
2022-11-30T01:19:07.581Z,16.86
2022-11-30T01:21:38.567Z,16.81
2022-11-30T01:24:12.055Z,17.12
2022-11-30T01:26:43.031Z,16.93
2022-11-30T01:29:13.998Z,17.15
2022-11-30T01:31:44.922Z,17.27
2022-11-30T01:34:15.670Z,17.10
2022-11-30T01:36:46.510Z,17.34
2022-11-30T01:39:17.306Z,17.38
2022-11-30T01:41:48.290Z,17.19
2022-11-30T01:44:20.357Z,17.59
2022-11-30T01:47:03.361Z,17.74
2022-11-30T01:49:43.110Z,17.90
2022-11-30T01:52:21.905Z,17.84
2022-11-30T01:55:09.170Z,17.91
2022-11-30T01:57:41.296Z,17.53
2022-11-30T02:00:14.849Z,17.66
2022-11-30T02:03:07.210Z,17.97
2022-11-30T02:05:40.385Z,17.81
2022-11-30T02:08:12.467Z,17.93
2022-11-30T02:10:47.568Z,17.87
2022-11-30T02:13:29.572Z,18.07
2022-11-30T02:16:20.694Z,17.67
2022-11-30T02:19:00.348Z,17.87
2022-11-30T02:21:55.509Z,17.73
2022-11-30T02:24:34.209Z,17.87
2022-11-30T02:27:11.977Z,18.04
2022-11-30T02:29:49.884Z,18.37
2022-11-30T02:32:36.102Z,18.41
2022-11-30T02:35:07.518Z,18.48
2022-11-30T02:37:40.064Z,18.75
2022-11-30T02:40:12.599Z,18.78
2022-11-30T02:42:43.542Z,18.85
2022-11-30T02:45:14.749Z,18.85
2022-11-30T02:48:13.655Z,19.12
2022-11-30T02:51:02.423Z,19.14
2022-11-30T02:53:34.141Z,18.92
2022-11-30T02:56:04.364Z,18.85
2022-11-30T02:58:35.351Z,18.57
2022-11-30T03:01:06.368Z,18.54
2022-11-30T03:03:37.407Z,18.81
2022-11-30T03:06:08.562Z,19.26
2022-11-30T03:08:39.861Z,19.90
2022-11-30T03:11:11.433Z,20.27
2022-11-30T03:13:42.394Z,20.46
2022-11-30T03:16:15.153Z,20.39
2022-11-30T03:18:46.107Z,20.72
2022-11-30T03:21:17.122Z,20.51
2022-11-30T03:23:48.266Z,20.68
2022-11-30T03:26:19.300Z,20.68
2022-11-30T03:28:50.375Z,21.02
2022-11-30T03:31:21.477Z,20.84
2022-11-30T03:33:52.516Z,20.83
2022-11-30T03:36:23.379Z,20.68
2022-11-30T03:38:54.414Z,20.35
2022-11-30T03:41:25.208Z,21.17
2022-11-30T03:43:56.221Z,20.62
2022-11-30T03:46:28.982Z,20.30
2022-11-30T03:48:59.893Z,20.70
2022-11-30T03:51:31.130Z,20.73
2022-11-30T03:54:02.367Z,20.51
2022-11-30T03:56:33.469Z,20.42
2022-11-30T03:59:04.438Z,21.03
2022-11-30T04:01:35.553Z,20.89
2022-11-30T04:04:06.835Z,20.84
2022-11-30T04:06:37.801Z,20.40
2022-11-30T04:09:08.737Z,20.97
2022-11-30T04:11:40.664Z,21.29
2022-11-30T04:14:11.681Z,20.77
2022-11-30T04:16:42.711Z,20.12
2022-11-30T04:19:13.874Z,20.29
2022-11-30T04:21:44.967Z,19.51
2022-11-30T04:24:16.169Z,19.30
2022-11-30T04:26:47.713Z,18.77
2022-11-30T04:29:18.955Z,18.79
2022-11-30T04:31:50.020Z,18.47
2022-11-30T04:34:21.303Z,18.80
2022-11-30T04:36:55.992Z,18.79
2022-11-30T04:39:29.994Z,18.67
2022-11-30T04:42:00.998Z,18.46
2022-11-30T04:44:31.812Z,18.37
2022-11-30T04:47:03.006Z,18.02
2022-11-30T04:49:34.049Z,17.75
2022-11-30T04:52:04.789Z,17.48
2022-11-30T04:54:36.025Z,17.31
2022-11-30T04:57:07.928Z,17.10
2022-11-30T04:59:38.904Z,17.11
2022-11-30T05:02:09.695Z,17.13
2022-11-30T05:04:40.772Z,16.99
2022-11-30T05:07:12.297Z,17.15
2022-11-30T05:09:43.271Z,17.26
2022-11-30T05:12:14.996Z,17.28
2022-11-30T05:14:46.362Z,17.31
2022-11-30T05:17:17.461Z,17.20
2022-11-30T05:19:48.488Z,17.60
2022-11-30T05:22:19.515Z,17.69
2022-11-30T05:24:50.555Z,17.41
2022-11-30T05:27:22.662Z,17.41
2022-11-30T05:29:54.224Z,17.20
2022-11-30T05:32:25.475Z,17.38
2022-11-30T05:34:56.512Z,17.15
2022-11-30T05:37:27.463Z,17.22
2022-11-30T05:39:58.384Z,17.05
2022-11-30T05:42:29.801Z,17.10
2022-11-30T05:45:01.042Z,17.23
2022-11-30T05:47:34.210Z,17.16
2022-11-30T05:50:05.565Z,16.97
2022-11-30T05:52:36.566Z,17.05
2022-11-30T05:55:08.237Z,17.12
2022-11-30T05:57:40.427Z,17.40
2022-11-30T06:00:12.123Z,17.34
2022-11-30T06:02:43.140Z,17.06
2022-11-30T06:05:15.092Z,17.26
2022-11-30T06:07:45.946Z,17.16
2022-11-30T06:10:17.198Z,17.14
2022-11-30T06:12:50.146Z,17.45
2022-11-30T06:15:21.254Z,17.65
2022-11-30T06:17:52.523Z,17.79
2022-11-30T06:20:23.282Z,17.95
2022-11-30T06:22:54.083Z,17.99
2022-11-30T06:25:25.191Z,17.97
2022-11-30T06:27:56.386Z,17.61
2022-11-30T06:30:27.545Z,17.42
2022-11-30T06:32:58.496Z,17.39
2022-11-30T06:35:29.772Z,17.24
2022-11-30T06:38:02.168Z,17.28
2022-11-30T06:40:33.651Z,17.04
2022-11-30T06:43:04.646Z,17.14
2022-11-30T06:45:35.468Z,16.90
2022-11-30T06:48:06.644Z,16.74
2022-11-30T06:50:37.915Z,16.65
2022-11-30T06:53:08.899Z,16.45
2022-11-30T06:55:39.925Z,16.42
2022-11-30T06:58:11.979Z,16.41
2022-11-30T07:00:44.282Z,16.40
2022-11-30T07:03:16.759Z,16.28
2022-11-30T07:05:49.075Z,16.16
2022-11-30T07:08:20.956Z,16.05
2022-11-30T07:10:52.191Z,15.93
2022-11-30T07:13:23.983Z,16.18
2022-11-30T07:15:54.947Z,15.92
2022-11-30T07:18:31.655Z,15.94
2022-11-30T07:21:04.534Z,16.07
2022-11-30T07:23:56.678Z,15.98
2022-11-30T07:26:28.479Z,15.92
2022-11-30T07:29:02.455Z,15.84
2022-11-30T07:31:38.361Z,15.82
2022-11-30T07:34:11.226Z,15.75
2022-11-30T07:36:42.521Z,15.70
2022-11-30T07:39:13.663Z,15.72
2022-11-30T07:41:44.993Z,15.61
2022-11-30T07:44:15.804Z,15.64
2022-11-30T07:46:47.057Z,15.39
2022-11-30T07:49:18.401Z,15.34
2022-11-30T07:51:49.628Z,15.25
2022-11-30T07:54:20.761Z,15.21
2022-11-30T07:56:51.578Z,15.31
2022-11-30T07:59:22.888Z,15.15
2022-11-30T08:01:53.990Z,15.07
2022-11-30T08:04:25.405Z,15.03
2022-11-30T08:06:56.961Z,14.88
2022-11-30T08:09:27.930Z,14.88
2022-11-30T08:11:59.288Z,15.06
2022-11-30T08:14:30.809Z,15.03
2022-11-30T08:17:02.148Z,14.85
2022-11-30T08:19:33.419Z,14.67
2022-11-30T08:22:04.741Z,14.76
2022-11-30T08:24:36.028Z,14.73
2022-11-30T08:27:06.838Z,14.81
2022-11-30T08:29:37.645Z,14.79
2022-11-30T08:32:08.895Z,14.81
2022-11-30T08:34:39.670Z,14.73
2022-11-30T08:37:11.054Z,14.77
2022-11-30T08:39:42.044Z,14.71
2022-11-30T08:42:13.803Z,14.71
2022-11-30T08:44:44.788Z,14.76
2022-11-30T08:47:16.140Z,14.74
2022-11-30T08:49:47.381Z,14.69
2022-11-30T08:52:18.980Z,14.61
2022-11-30T08:54:50.991Z,14.56
2022-11-30T08:57:24.045Z,14.61
2022-11-30T08:59:54.945Z,14.61
2022-11-30T09:02:26.548Z,14.57
2022-11-30T09:04:57.016Z,14.47
2022-11-30T09:07:28.170Z,14.35
2022-11-30T09:09:59.397Z,14.43
2022-11-30T09:12:30.361Z,14.40
2022-11-30T09:15:02.170Z,14.44
2022-11-30T09:17:34.626Z,14.40
2022-11-30T09:20:06.030Z,14.36
2022-11-30T09:22:37.311Z,14.53
2022-11-30T09:25:08.474Z,14.64
2022-11-30T09:27:39.498Z,14.75
2022-11-30T09:30:11.238Z,14.73
2022-11-30T09:32:42.256Z,14.65
2022-11-30T09:35:13.550Z,14.58
2022-11-30T09:37:44.888Z,14.40
2022-11-30T09:40:16.461Z,14.39
2022-11-30T09:43:27.169Z,14.24
2022-11-30T09:46:01.639Z,14.11
2022-11-30T09:48:57.124Z,14.24
2022-11-30T09:51:50.575Z,14.16
2022-11-30T09:54:39.424Z,14.06
2022-11-30T09:57:47.097Z,14.18
2022-11-30T10:00:25.968Z,14.19
2022-11-30T10:02:58.542Z,14.10
2022-11-30T10:05:46.763Z,14.05
2022-11-30T10:08:20.586Z,14.15
2022-11-30T10:11:07.553Z,14.13
2022-11-30T10:14:04.516Z,14.14
2022-11-30T10:16:46.132Z,14.06
2022-11-30T10:19:25.899Z,14.03
2022-11-30T10:22:03.039Z,13.93
2022-11-30T10:24:46.625Z,13.94
2022-11-30T10:27:20.753Z,13.97
2022-11-30T10:29:52.116Z,13.88
2022-11-30T10:32:34.760Z,13.90
2022-11-30T10:35:37.148Z,14.05
2022-11-30T10:38:25.775Z,13.98
2022-11-30T10:40:59.729Z,13.96
2022-11-30T10:43:57.381Z,13.97
2022-11-30T10:46:35.228Z,13.78
2022-11-30T10:49:17.672Z,13.76
2022-11-30T10:51:53.338Z,13.67
2022-11-30T10:54:25.276Z,13.79
2022-11-30T10:56:56.260Z,13.63
2022-11-30T10:59:47.312Z,13.72
2022-11-30T11:02:41.740Z,13.74
2022-11-30T11:05:30.378Z,13.84
2022-11-30T11:08:07.057Z,13.73
2022-11-30T11:10:53.085Z,13.75
2022-11-30T11:13:44.937Z,13.74
2022-11-30T11:16:16.029Z,13.68
2022-11-30T11:18:59.507Z,13.64
2022-11-30T11:21:30.300Z,13.61
2022-11-30T11:24:01.395Z,13.58
2022-11-30T11:26:33.276Z,13.67
2022-11-30T11:29:04.502Z,13.65
2022-11-30T11:31:38.205Z,13.57
2022-11-30T11:34:26.829Z,13.56
2022-11-30T11:37:23.967Z,13.53
2022-11-30T11:40:12.845Z,13.52
2022-11-30T11:42:54.798Z,13.42
2022-11-30T11:45:28.254Z,13.43
2022-11-30T11:48:11.799Z,13.41
2022-11-30T11:51:06.133Z,13.39
2022-11-30T11:53:45.132Z,13.45
2022-11-30T11:56:26.580Z,13.49
2022-11-30T11:59:12.542Z,13.46
2022-11-30T12:02:01.459Z,13.35
2022-11-30T12:04:48.642Z,13.28
2022-11-30T12:07:36.765Z,13.32
2022-11-30T12:10:51.827Z,13.35
2022-11-30T12:13:25.974Z,13.42
2022-11-30T12:16:22.878Z,13.54
2022-11-30T12:19:15.960Z,13.56
2022-11-30T12:21:59.237Z,13.61
2022-11-30T12:25:06.193Z,13.55
2022-11-30T12:27:45.211Z,13.63
2022-11-30T12:30:27.591Z,13.72
2022-11-30T12:33:25.346Z,13.58
2022-11-30T12:35:59.485Z,13.56
2022-11-30T12:39:05.616Z,13.65
2022-11-30T12:41:45.783Z,13.67
2022-11-30T12:44:45.270Z,13.75
2022-11-30T12:47:31.602Z,13.56
2022-11-30T12:50:25.067Z,13.49
2022-11-30T12:52:55.805Z,13.46
2022-11-30T12:55:50.612Z,13.44
2022-11-30T12:58:27.892Z,13.34
2022-11-30T13:01:04.810Z,13.28
2022-11-30T13:03:54.017Z,13.25
2022-11-30T13:06:32.501Z,13.22
2022-11-30T13:09:15.760Z,13.40
2022-11-30T13:11:50.469Z,13.57
2022-11-30T13:14:25.514Z,13.55
2022-11-30T13:17:06.620Z,13.46
2022-11-30T13:19:56.029Z,13.39
2022-11-30T13:22:48.148Z,13.32
2022-11-30T13:26:08.623Z,13.28
2022-11-30T13:28:42.877Z,13.32
2022-11-30T13:31:22.141Z,13.46
2022-11-30T13:33:56.100Z,13.52
2022-11-30T13:36:46.368Z,13.52
2022-11-30T13:39:17.901Z,13.46
2022-11-30T13:41:51.866Z,13.40
2022-11-30T13:44:42.607Z,13.49
2022-11-30T13:47:21.968Z,13.41
2022-11-30T13:50:00.917Z,13.46
2022-11-30T13:53:00.343Z,13.58
2022-11-30T13:55:50.011Z,13.61
2022-11-30T13:58:22.158Z,13.55
2022-11-30T14:01:23.044Z,13.51
2022-11-30T14:04:16.702Z,13.50
2022-11-30T14:06:52.596Z,13.45
2022-11-30T14:09:45.123Z,13.32
2022-11-30T14:12:34.413Z,13.37
2022-11-30T14:15:28.447Z,13.33
2022-11-30T14:18:00.245Z,13.42
2022-11-30T14:20:40.833Z,13.48
2022-11-30T14:23:51.833Z,13.50
2022-11-30T14:26:32.458Z,13.48
2022-11-30T14:29:06.555Z,13.51
2022-11-30T14:31:53.849Z,13.39
2022-11-30T14:34:43.591Z,13.45
2022-11-30T14:37:30.525Z,13.45
2022-11-30T14:40:06.260Z,13.54
2022-11-30T14:42:37.808Z,13.51
2022-11-30T14:45:21.528Z,13.52
2022-11-30T14:48:16.653Z,13.61
2022-11-30T14:50:53.065Z,13.61
2022-11-30T14:54:04.603Z,13.65
2022-11-30T14:56:42.990Z,13.69
2022-11-30T14:59:55.265Z,13.68
2022-11-30T15:02:28.955Z,13.78
2022-11-30T15:05:01.194Z,13.75
2022-11-30T15:07:33.265Z,13.83
2022-11-30T15:10:10.619Z,13.87
2022-11-30T15:12:43.331Z,13.74
2022-11-30T15:15:23.594Z,13.69
2022-11-30T15:18:00.329Z,13.75
2022-11-30T15:20:44.020Z,13.89
2022-11-30T15:23:18.753Z,13.93
2022-11-30T15:25:52.294Z,13.97
2022-11-30T15:28:44.331Z,13.98
2022-11-30T15:31:17.419Z,13.92
2022-11-30T15:33:52.516Z,13.89
2022-11-30T15:36:32.308Z,13.90
2022-11-30T15:39:09.065Z,13.82
2022-11-30T15:41:40.582Z,13.72
2022-11-30T15:44:35.224Z,13.81
2022-11-30T15:47:08.711Z,13.72
2022-11-30T15:49:39.742Z,13.64
2022-11-30T15:52:13.663Z,13.73
2022-11-30T15:55:00.352Z,13.66
2022-11-30T15:58:04.402Z,13.70
2022-11-30T16:00:35.363Z,13.76
2022-11-30T16:03:11.265Z,13.78
2022-11-30T16:05:42.722Z,13.78
2022-11-30T16:08:18.760Z,13.81
2022-11-30T16:10:49.771Z,13.81
2022-11-30T16:13:23.895Z,13.91
2022-11-30T16:15:55.289Z,13.86
2022-11-30T16:18:28.955Z,13.84
2022-11-30T16:21:03.548Z,13.89
2022-11-30T16:23:38.043Z,13.93
2022-11-30T16:26:23.093Z,13.90
2022-11-30T16:29:02.718Z,13.96
2022-11-30T16:31:33.834Z,13.99
2022-11-30T16:34:05.022Z,14.04
2022-11-30T16:36:39.820Z,14.09
2022-11-30T16:39:15.702Z,14.05
2022-11-30T16:41:47.461Z,13.96
2022-11-30T16:44:18.286Z,14.03
2022-11-30T16:46:50.189Z,14.01
2022-11-30T16:49:20.598Z,13.94
2022-11-30T16:51:51.720Z,13.86
2022-11-30T16:54:22.822Z,13.82
2022-11-30T16:56:54.102Z,13.85
2022-11-30T16:59:24.828Z,13.75
2022-11-30T17:01:55.980Z,13.80
2022-11-30T17:04:28.254Z,13.79
2022-11-30T17:07:02.724Z,13.78
2022-11-30T17:09:36.004Z,13.89
2022-11-30T17:12:07.415Z,13.98
2022-11-30T17:14:38.534Z,14.07
2022-11-30T17:17:09.876Z,14.05
2022-11-30T17:19:40.690Z,14.19
2022-11-30T17:22:11.792Z,14.20
2022-11-30T17:24:43.329Z,14.26
2022-11-30T17:27:14.321Z,14.31
2022-11-30T17:29:45.051Z,14.34
2022-11-30T17:32:16.310Z,14.37
2022-11-30T17:34:47.171Z,14.43
2022-11-30T17:37:18.071Z,14.47
2022-11-30T17:39:48.861Z,14.48
2022-11-30T17:42:19.645Z,14.49
2022-11-30T17:44:50.844Z,14.47
2022-11-30T17:47:23.714Z,14.51
2022-11-30T17:49:54.503Z,14.52
2022-11-30T17:52:25.246Z,14.49
2022-11-30T17:54:56.365Z,14.60
2022-11-30T17:57:27.394Z,14.66
2022-11-30T17:59:58.353Z,14.70
2022-11-30T18:02:29.495Z,14.94
2022-11-30T18:05:00.961Z,15.27
2022-11-30T18:07:32.957Z,15.45
2022-11-30T18:10:03.949Z,15.70
2022-11-30T18:12:34.995Z,15.66
2022-11-30T18:15:06.308Z,15.65
2022-11-30T18:17:38.180Z,15.58
2022-11-30T18:20:09.876Z,15.72
2022-11-30T18:22:41.078Z,16.01
2022-11-30T18:25:12.263Z,16.06
2022-11-30T18:27:43.557Z,16.23
2022-11-30T18:30:14.864Z,16.46
2022-11-30T18:32:45.568Z,16.46
2022-11-30T18:35:16.430Z,16.48
2022-11-30T18:37:47.595Z,16.65
2022-11-30T18:40:19.602Z,16.69
2022-11-30T18:42:50.513Z,16.96
2022-11-30T18:45:21.461Z,16.68
2022-11-30T18:47:52.451Z,16.79
2022-11-30T18:50:23.637Z,17.17
2022-11-30T18:52:56.243Z,16.78
2022-11-30T18:55:28.019Z,17.15
2022-11-30T18:57:58.671Z,17.30
2022-11-30T19:00:30.552Z,17.27
2022-11-30T19:03:01.555Z,17.75
2022-11-30T19:05:37.504Z,17.60
2022-11-30T19:08:12.803Z,18.14
2022-11-30T19:10:43.958Z,18.09
2022-11-30T19:13:15.230Z,18.28
2022-11-30T19:15:46.094Z,18.40
2022-11-30T19:18:21.787Z,18.49
2022-11-30T19:20:54.070Z,18.80
2022-11-30T19:23:25.481Z,18.77
2022-11-30T19:26:02.612Z,19.13
2022-11-30T19:28:34.558Z,19.42
2022-11-30T19:31:24.280Z,19.06
2022-11-30T19:33:57.465Z,19.06
2022-11-30T19:36:30.711Z,18.83
2022-11-30T19:39:02.319Z,18.48
2022-11-30T19:41:33.699Z,18.54
2022-11-30T19:44:04.955Z,18.86
2022-11-30T19:46:36.060Z,18.35
2022-11-30T19:49:08.768Z,18.57
2022-11-30T19:51:40.107Z,19.01
2022-11-30T19:54:11.036Z,19.29
2022-11-30T19:56:44.573Z,19.66
2022-11-30T19:59:15.513Z,19.70
2022-11-30T20:01:46.767Z,19.25
2022-11-30T20:04:17.555Z,19.28
2022-11-30T20:06:48.730Z,19.56
2022-11-30T20:09:19.894Z,19.06
2022-11-30T20:11:50.737Z,19.55
2022-11-30T20:14:23.954Z,19.79
2022-11-30T20:16:54.871Z,20.12
2022-11-30T20:19:25.711Z,20.37
2022-11-30T20:21:56.524Z,20.13
2022-11-30T20:24:27.863Z,20.20
2022-11-30T20:26:59.306Z,20.19
2022-11-30T20:29:30.540Z,20.17
2022-11-30T20:32:01.784Z,20.44
2022-11-30T20:34:35.210Z,21.11
2022-11-30T20:37:07.585Z,21.57
2022-11-30T20:39:42.616Z,21.77
2022-11-30T20:42:16.586Z,21.35
2022-11-30T20:44:48.122Z,21.07
2022-11-30T20:47:19.208Z,20.63
2022-11-30T20:49:51.874Z,21.22
2022-11-30T20:52:22.718Z,21.13
2022-11-30T20:54:53.869Z,21.01
2022-11-30T20:57:25.098Z,21.68
2022-11-30T20:59:56.327Z,21.62
2022-11-30T21:02:27.207Z,21.30
2022-11-30T21:04:58.008Z,22.11
2022-11-30T21:07:28.951Z,21.64
2022-11-30T21:10:00.050Z,21.44
2022-11-30T21:12:33.419Z,21.80
2022-11-30T21:15:04.695Z,21.91
2022-11-30T21:17:35.876Z,21.78
2022-11-30T21:20:07.307Z,22.70
2022-11-30T21:22:38.071Z,22.48
2022-11-30T21:25:09.478Z,21.35
2022-11-30T21:27:42.412Z,21.82
2022-11-30T21:30:14.199Z,21.61
2022-11-30T21:32:44.490Z,21.32
2022-11-30T21:35:15.739Z,20.77
2022-11-30T21:37:46.723Z,20.85
2022-11-30T21:40:18.023Z,20.87
2022-11-30T21:42:48.778Z,22.07
2022-11-30T21:45:19.783Z,22.05
2022-11-30T21:47:50.968Z,21.38
2022-11-30T21:50:26.924Z,21.81
2022-11-30T21:52:58.285Z,21.85
2022-11-30T21:55:29.357Z,23.06
2022-11-30T21:58:01.378Z,23.10
2022-11-30T22:00:32.469Z,23.95
2022-11-30T22:03:03.299Z,23.96
2022-11-30T22:05:34.198Z,23.79
2022-11-30T22:08:05.507Z,23.81
2022-11-30T22:10:36.643Z,23.63
2022-11-30T22:13:07.882Z,23.32
2022-11-30T22:15:39.130Z,23.25
2022-11-30T22:18:10.243Z,23.75
2022-11-30T22:20:42.058Z,23.82
2022-11-30T22:23:12.157Z,23.67
2022-11-30T22:25:43.146Z,24.00
2022-11-30T22:28:14.583Z,23.82
2022-11-30T22:30:46.147Z,24.09
2022-11-30T22:33:17.226Z,24.20
2022-11-30T22:35:48.145Z,23.79
2022-11-30T22:38:19.194Z,24.84
2022-11-30T22:40:50.165Z,24.60
2022-11-30T22:43:20.879Z,23.82
2022-11-30T22:45:51.797Z,24.18
2022-11-30T22:48:22.670Z,23.89
2022-11-30T22:50:53.441Z,24.24
2022-11-30T22:53:24.271Z,24.60
2022-11-30T22:55:55.178Z,24.83
2022-11-30T22:58:26.193Z,24.35
2022-11-30T23:00:57.099Z,23.95
2022-11-30T23:03:31.510Z,22.30
2022-11-30T23:06:02.609Z,22.40
2022-11-30T23:08:34.745Z,23.88
2022-11-30T23:11:12.649Z,24.80
2022-11-30T23:13:44.383Z,23.80
2022-11-30T23:16:15.361Z,23.61
2022-11-30T23:18:57.432Z,23.15
2022-11-30T23:21:43.867Z,22.48
2022-11-30T23:24:17.844Z,22.67
2022-11-30T23:26:49.609Z,22.85
2022-11-30T23:29:21.558Z,22.49
2022-11-30T23:31:52.518Z,22.91
2022-11-30T23:34:24.315Z,22.40
2022-11-30T23:36:55.227Z,22.09
2022-11-30T23:39:29.599Z,21.64
2022-11-30T23:42:01.423Z,21.70
2022-11-30T23:44:32.519Z,22.60
2022-11-30T23:47:03.853Z,23.21
2022-11-30T23:49:34.830Z,23.22
2022-11-30T23:52:05.756Z,24.40
2022-11-30T23:54:36.757Z,23.68
2022-11-30T23:57:07.713Z,24.23
2022-11-30T23:59:38.886Z,24.30
